sensor_id;sensor_type;location;lat;lon;timestamp;P1;durP1;ratioP1;P2;durP2;ratioP2
6941;SDS011;3510;43.200;27.920;2023-09-08T00:01:12;2.40;;;2.30;;
6941;SDS011;3510;43.200;27.920;2023-09-08T00:03:38;2.30;;;2.20;;
6941;SDS011;3510;43.200;27.920;2023-09-08T00:06:05;2.00;;;1.90;;
6941;SDS011;3510;43.200;27.920;2023-09-08T00:08:33;2.50;;;2.30;;
6941;SDS011;3510;43.200;27.920;2023-09-08T00:11:00;2.20;;;2.10;;
6941;SDS011;3510;43.200;27.920;2023-09-08T00:13:27;2.25;;;2.05;;
6941;SDS011;3510;43.200;27.920;2023-09-08T00:15:53;2.40;;;2.20;;
6941;SDS011;3510;43.200;27.920;2023-09-08T00:18:20;2.10;;;2.00;;
6941;SDS011;3510;43.200;27.920;2023-09-08T00:20:48;2.42;;;2.22;;
6941;SDS011;3510;43.200;27.920;2023-09-08T00:23:14;2.00;;;1.90;;
6941;SDS011;3510;43.200;27.920;2023-09-08T00:25:42;2.17;;;2.08;;
6941;SDS011;3510;43.200;27.920;2023-09-08T00:28:09;3.55;;;2.00;;
6941;SDS011;3510;43.200;27.920;2023-09-08T00:30:36;1.90;;;1.80;;
6941;SDS011;3510;43.200;27.920;2023-09-08T00:33:03;2.25;;;2.15;;
6941;SDS011;3510;43.200;27.920;2023-09-08T00:35:33;2.33;;;2.22;;
6941;SDS011;3510;43.200;27.920;2023-09-08T00:38:00;2.25;;;2.15;;
6941;SDS011;3510;43.200;27.920;2023-09-08T00:43:49;2.25;;;2.15;;
6941;SDS011;3510;43.200;27.920;2023-09-08T00:46:30;2.33;;;2.22;;
6941;SDS011;3510;43.200;27.920;2023-09-08T00:48:56;1.90;;;1.80;;
6941;SDS011;3510;43.200;27.920;2023-09-08T00:51:23;2.58;;;2.38;;
6941;SDS011;3510;43.200;27.920;2023-09-08T00:53:50;2.30;;;2.20;;
6941;SDS011;3510;43.200;27.920;2023-09-08T00:56:18;2.00;;;1.90;;
6941;SDS011;3510;43.200;27.920;2023-09-08T00:58:45;2.50;;;2.30;;
6941;SDS011;3510;43.200;27.920;2023-09-08T01:04:37;3.60;;;2.22;;
6941;SDS011;3510;43.200;27.920;2023-09-08T01:07:06;2.03;;;1.92;;
6941;SDS011;3510;43.200;27.920;2023-09-08T01:09:33;2.27;;;2.17;;
6941;SDS011;3510;43.200;27.920;2023-09-08T01:12:02;2.10;;;1.90;;
6941;SDS011;3510;43.200;27.920;2023-09-08T01:14:29;2.30;;;2.20;;
6941;SDS011;3510;43.200;27.920;2023-09-08T01:16:56;2.47;;;2.38;;
6941;SDS011;3510;43.200;27.920;2023-09-08T01:19:22;2.33;;;2.22;;
6941;SDS011;3510;43.200;27.920;2023-09-08T01:22:02;2.20;;;2.10;;
6941;SDS011;3510;43.200;27.920;2023-09-08T01:24:57;2.28;;;2.17;;
6941;SDS011;3510;43.200;27.920;2023-09-08T01:27:31;2.58;;;2.47;;
6941;SDS011;3510;43.200;27.920;2023-09-08T01:30:00;2.53;;;2.33;;
6941;SDS011;3510;43.200;27.920;2023-09-08T01:32:29;2.50;;;2.30;;
6941;SDS011;3510;43.200;27.920;2023-09-08T01:34:56;2.20;;;2.10;;
6941;SDS011;3510;43.200;27.920;2023-09-08T01:37:24;2.47;;;2.30;;
6941;SDS011;3510;43.200;27.920;2023-09-08T01:39:51;2.05;;;1.95;;
6941;SDS011;3510;43.200;27.920;2023-09-08T01:42:19;2.33;;;2.22;;
6941;SDS011;3510;43.200;27.920;2023-09-08T01:44:46;2.20;;;2.03;;
6941;SDS011;3510;43.200;27.920;2023-09-08T01:47:13;2.20;;;2.10;;
6941;SDS011;3510;43.200;27.920;2023-09-08T01:49:39;2.20;;;2.00;;
6941;SDS011;3510;43.200;27.920;2023-09-08T01:52:06;2.63;;;2.20;;
6941;SDS011;3510;43.200;27.920;2023-09-08T01:54:33;2.15;;;2.05;;
6941;SDS011;3510;43.200;27.920;2023-09-08T01:57:00;2.50;;;2.40;;
6941;SDS011;3510;43.200;27.920;2023-09-08T01:59:28;2.53;;;2.25;;
6941;SDS011;3510;43.200;27.920;2023-09-08T02:01:55;2.30;;;2.20;;
6941;SDS011;3510;43.200;27.920;2023-09-08T02:04:22;2.20;;;2.10;;
6941;SDS011;3510;43.200;27.920;2023-09-08T02:06:49;2.80;;;2.38;;
6941;SDS011;3510;43.200;27.920;2023-09-08T02:09:16;3.08;;;2.50;;
6941;SDS011;3510;43.200;27.920;2023-09-08T02:11:42;2.58;;;2.40;;
6941;SDS011;3510;43.200;27.920;2023-09-08T02:14:09;2.30;;;2.20;;
6941;SDS011;3510;43.200;27.920;2023-09-08T02:16:38;2.47;;;2.28;;
6941;SDS011;3510;43.200;27.920;2023-09-08T02:19:05;3.40;;;2.50;;
6941;SDS011;3510;43.200;27.920;2023-09-08T02:21:31;2.78;;;2.55;;
6941;SDS011;3510;43.200;27.920;2023-09-08T02:23:58;3.35;;;2.30;;
6941;SDS011;3510;43.200;27.920;2023-09-08T02:26:25;2.30;;;2.20;;
6941;SDS011;3510;43.200;27.920;2023-09-08T02:28:52;3.20;;;2.40;;
6941;SDS011;3510;43.200;27.920;2023-09-08T02:31:19;2.17;;;2.08;;
6941;SDS011;3510;43.200;27.920;2023-09-08T02:33:47;2.00;;;1.90;;
6941;SDS011;3510;43.200;27.920;2023-09-08T02:36:14;2.00;;;1.90;;
6941;SDS011;3510;43.200;27.920;2023-09-08T02:38:40;2.10;;;2.00;;
6941;SDS011;3510;43.200;27.920;2023-09-08T02:41:07;2.17;;;1.90;;
6941;SDS011;3510;43.200;27.920;2023-09-08T02:43:34;2.00;;;1.90;;
6941;SDS011;3510;43.200;27.920;2023-09-08T02:46:00;2.13;;;2.03;;
6941;SDS011;3510;43.200;27.920;2023-09-08T02:48:27;2.13;;;2.03;;
6941;SDS011;3510;43.200;27.920;2023-09-08T02:50:55;2.00;;;1.90;;
6941;SDS011;3510;43.200;27.920;2023-09-08T02:53:22;2.80;;;2.60;;
6941;SDS011;3510;43.200;27.920;2023-09-08T02:55:53;2.17;;;2.08;;
6941;SDS011;3510;43.200;27.920;2023-09-08T02:58:20;2.53;;;1.95;;
6941;SDS011;3510;43.200;27.920;2023-09-08T03:00:47;3.60;;;2.20;;
6941;SDS011;3510;43.200;27.920;2023-09-08T03:03:13;1.95;;;1.85;;
6941;SDS011;3510;43.200;27.920;2023-09-08T03:05:40;2.20;;;2.10;;
6941;SDS011;3510;43.200;27.920;2023-09-08T03:08:08;2.03;;;1.83;;
6941;SDS011;3510;43.200;27.920;2023-09-08T03:10:35;2.22;;;2.13;;
6941;SDS011;3510;43.200;27.920;2023-09-08T03:13:02;1.90;;;1.80;;
6941;SDS011;3510;43.200;27.920;2023-09-08T03:15:29;2.00;;;1.90;;
6941;SDS011;3510;43.200;27.920;2023-09-08T03:17:55;2.20;;;2.10;;
6941;SDS011;3510;43.200;27.920;2023-09-08T03:20:23;2.10;;;2.00;;
6941;SDS011;3510;43.200;27.920;2023-09-08T03:22:50;1.77;;;1.67;;
6941;SDS011;3510;43.200;27.920;2023-09-08T03:28:15;3.23;;;2.23;;
6941;SDS011;3510;43.200;27.920;2023-09-08T03:30:42;1.95;;;1.85;;
6941;SDS011;3510;43.200;27.920;2023-09-08T03:33:09;3.70;;;1.95;;
6941;SDS011;3510;43.200;27.920;2023-09-08T03:35:36;2.10;;;1.92;;
6941;SDS011;3510;43.200;27.920;2023-09-08T03:38:02;2.13;;;2.03;;
6941;SDS011;3510;43.200;27.920;2023-09-08T03:40:29;1.90;;;1.80;;
6941;SDS011;3510;43.200;27.920;2023-09-08T03:42:56;2.45;;;1.75;;
6941;SDS011;3510;43.200;27.920;2023-09-08T03:45:24;1.73;;;1.63;;
6941;SDS011;3510;43.200;27.920;2023-09-08T03:47:51;2.30;;;1.83;;
6941;SDS011;3510;43.200;27.920;2023-09-08T03:50:18;1.90;;;1.80;;
6941;SDS011;3510;43.200;27.920;2023-09-08T03:52:46;2.30;;;2.20;;
6941;SDS011;3510;43.200;27.920;2023-09-08T03:55:14;1.73;;;1.63;;
6941;SDS011;3510;43.200;27.920;2023-09-08T03:57:42;1.92;;;1.83;;
6941;SDS011;3510;43.200;27.920;2023-09-08T04:00:09;1.83;;;1.73;;
6941;SDS011;3510;43.200;27.920;2023-09-08T04:02:38;2.05;;;1.77;;
6941;SDS011;3510;43.200;27.920;2023-09-08T04:05:05;2.10;;;1.87;;
6941;SDS011;3510;43.200;27.920;2023-09-08T04:07:32;3.10;;;1.90;;
6941;SDS011;3510;43.200;27.920;2023-09-08T04:09:58;3.20;;;1.70;;
6941;SDS011;3510;43.200;27.920;2023-09-08T04:12:25;1.70;;;1.60;;
6941;SDS011;3510;43.200;27.920;2023-09-08T04:14:52;2.05;;;1.95;;
6941;SDS011;3510;43.200;27.920;2023-09-08T04:17:19;2.30;;;2.20;;
6941;SDS011;3510;43.200;27.920;2023-09-08T04:19:47;2.30;;;2.20;;
6941;SDS011;3510;43.200;27.920;2023-09-08T04:22:14;1.90;;;1.80;;
6941;SDS011;3510;43.200;27.920;2023-09-08T04:24:41;2.17;;;2.00;;
6941;SDS011;3510;43.200;27.920;2023-09-08T04:27:07;2.33;;;2.13;;
6941;SDS011;3510;43.200;27.920;2023-09-08T04:29:35;2.28;;;2.17;;
6941;SDS011;3510;43.200;27.920;2023-09-08T04:32:02;2.38;;;2.20;;
6941;SDS011;3510;43.200;27.920;2023-09-08T04:34:34;2.33;;;2.17;;
6941;SDS011;3510;43.200;27.920;2023-09-08T04:37:04;2.40;;;2.20;;
6941;SDS011;3510;43.200;27.920;2023-09-08T04:39:31;2.03;;;1.92;;
6941;SDS011;3510;43.200;27.920;2023-09-08T04:41:57;2.30;;;2.20;;
6941;SDS011;3510;43.200;27.920;2023-09-08T04:44:24;2.50;;;2.20;;
6941;SDS011;3510;43.200;27.920;2023-09-08T04:46:51;2.15;;;1.95;;
6941;SDS011;3510;43.200;27.920;2023-09-08T04:49:19;2.15;;;2.05;;
6941;SDS011;3510;43.200;27.920;2023-09-08T04:51:46;2.20;;;2.10;;
6941;SDS011;3510;43.200;27.920;2023-09-08T04:54:14;2.72;;;2.53;;
6941;SDS011;3510;43.200;27.920;2023-09-08T04:56:41;2.50;;;2.30;;
6941;SDS011;3510;43.200;27.920;2023-09-08T04:59:07;2.15;;;2.05;;
6941;SDS011;3510;43.200;27.920;2023-09-08T05:01:34;2.40;;;2.17;;
6941;SDS011;3510;43.200;27.920;2023-09-08T05:04:02;2.45;;;2.35;;
6941;SDS011;3510;43.200;27.920;2023-09-08T05:06:29;2.53;;;2.33;;
6941;SDS011;3510;43.200;27.920;2023-09-08T05:08:57;2.33;;;2.13;;
6941;SDS011;3510;43.200;27.920;2023-09-08T05:11:26;2.35;;;2.25;;
6941;SDS011;3510;43.200;27.920;2023-09-08T05:13:53;3.15;;;2.95;;
6941;SDS011;3510;43.200;27.920;2023-09-08T05:16:20;2.60;;;2.42;;
6941;SDS011;3510;43.200;27.920;2023-09-08T05:19:01;3.05;;;2.55;;
6941;SDS011;3510;43.200;27.920;2023-09-08T05:21:28;2.40;;;2.28;;
6941;SDS011;3510;43.200;27.920;2023-09-08T05:23:55;2.53;;;2.40;;
6941;SDS011;3510;43.200;27.920;2023-09-08T05:26:21;3.40;;;3.15;;
6941;SDS011;3510;43.200;27.920;2023-09-08T05:28:50;5.38;;;2.90;;
6941;SDS011;3510;43.200;27.920;2023-09-08T05:31:17;2.97;;;2.78;;
6941;SDS011;3510;43.200;27.920;2023-09-08T05:33:44;2.80;;;2.60;;
6941;SDS011;3510;43.200;27.920;2023-09-08T05:36:11;3.05;;;2.85;;
6941;SDS011;3510;43.200;27.920;2023-09-08T05:38:38;3.08;;;2.88;;
6941;SDS011;3510;43.200;27.920;2023-09-08T05:41:05;3.25;;;2.83;;
6941;SDS011;3510;43.200;27.920;2023-09-08T05:43:32;3.08;;;2.88;;
6941;SDS011;3510;43.200;27.920;2023-09-08T05:46:00;3.00;;;2.75;;
6941;SDS011;3510;43.200;27.920;2023-09-08T05:48:26;3.33;;;3.03;;
6941;SDS011;3510;43.200;27.920;2023-09-08T05:50:53;2.95;;;2.70;;
6941;SDS011;3510;43.200;27.920;2023-09-08T05:53:21;4.25;;;2.70;;
6941;SDS011;3510;43.200;27.920;2023-09-08T05:55:47;2.75;;;2.55;;
6941;SDS011;3510;43.200;27.920;2023-09-08T05:58:15;1.90;;;1.80;;
6941;SDS011;3510;43.200;27.920;2023-09-08T06:00:42;3.05;;;2.70;;
6941;SDS011;3510;43.200;27.920;2023-09-08T06:03:10;3.42;;;2.10;;
6941;SDS011;3510;43.200;27.920;2023-09-08T06:08:04;2.95;;;2.67;;
6941;SDS011;3510;43.200;27.920;2023-09-08T06:10:30;2.58;;;2.40;;
6941;SDS011;3510;43.200;27.920;2023-09-08T06:12:57;3.10;;;2.90;;
6941;SDS011;3510;43.200;27.920;2023-09-08T06:15:23;3.03;;;2.63;;
6941;SDS011;3510;43.200;27.920;2023-09-08T06:17:50;3.08;;;2.88;;
6941;SDS011;3510;43.200;27.920;2023-09-08T06:20:18;2.67;;;2.47;;
6941;SDS011;3510;43.200;27.920;2023-09-08T06:22:45;3.35;;;3.15;;
6941;SDS011;3510;43.200;27.920;2023-09-08T06:27:38;3.08;;;2.88;;
6941;SDS011;3510;43.200;27.920;2023-09-08T06:30:06;4.53;;;3.47;;
6941;SDS011;3510;43.200;27.920;2023-09-08T06:32:39;4.15;;;2.83;;
6941;SDS011;3510;43.200;27.920;2023-09-08T06:35:05;3.10;;;2.90;;
6941;SDS011;3510;43.200;27.920;2023-09-08T06:37:36;6.63;;;3.80;;
6941;SDS011;3510;43.200;27.920;2023-09-08T06:40:03;2.53;;;2.33;;
6941;SDS011;3510;43.200;27.920;2023-09-08T06:42:42;3.92;;;3.00;;
6941;SDS011;3510;43.200;27.920;2023-09-08T07:03:27;3.33;;;3.03;;
6941;SDS011;3510;43.200;27.920;2023-09-08T07:06:03;3.15;;;2.95;;
6941;SDS011;3510;43.200;27.920;2023-09-08T07:08:42;2.85;;;2.65;;
6941;SDS011;3510;43.200;27.920;2023-09-08T07:11:09;5.32;;;3.40;;
6941;SDS011;3510;43.200;27.920;2023-09-08T07:23:29;2.90;;;2.55;;
6941;SDS011;3510;43.200;27.920;2023-09-08T07:25:57;5.38;;;3.30;;
6941;SDS011;3510;43.200;27.920;2023-09-08T07:30:51;3.70;;;3.38;;
6941;SDS011;3510;43.200;27.920;2023-09-08T07:35:48;3.25;;;3.05;;
6941;SDS011;3510;43.200;27.920;2023-09-08T07:38:14;3.35;;;3.15;;
6941;SDS011;3510;43.200;27.920;2023-09-08T07:40:41;4.00;;;3.50;;
6941;SDS011;3510;43.200;27.920;2023-09-08T07:43:08;3.20;;;3.10;;
6941;SDS011;3510;43.200;27.920;2023-09-08T07:45:35;3.45;;;3.25;;
6941;SDS011;3510;43.200;27.920;2023-09-08T07:48:02;3.15;;;3.00;;
6941;SDS011;3510;43.200;27.920;2023-09-08T07:50:30;3.03;;;2.80;;
6941;SDS011;3510;43.200;27.920;2023-09-08T07:55:24;2.75;;;2.55;;
6941;SDS011;3510;43.200;27.920;2023-09-08T07:57:54;2.88;;;2.67;;
6941;SDS011;3510;43.200;27.920;2023-09-08T08:00:22;2.97;;;2.72;;
6941;SDS011;3510;43.200;27.920;2023-09-08T08:02:51;3.05;;;2.85;;
6941;SDS011;3510;43.200;27.920;2023-09-08T08:05:20;6.18;;;3.75;;
6941;SDS011;3510;43.200;27.920;2023-09-08T08:07:51;3.30;;;3.10;;
6941;SDS011;3510;43.200;27.920;2023-09-08T08:12:47;2.90;;;2.70;;
6941;SDS011;3510;43.200;27.920;2023-09-08T08:15:14;4.25;;;2.88;;
6941;SDS011;3510;43.200;27.920;2023-09-08T08:17:41;6.38;;;3.00;;
6941;SDS011;3510;43.200;27.920;2023-09-08T08:20:10;4.70;;;3.30;;
6941;SDS011;3510;43.200;27.920;2023-09-08T08:22:42;4.43;;;4.03;;
6941;SDS011;3510;43.200;27.920;2023-09-08T08:25:14;3.72;;;3.50;;
6941;SDS011;3510;43.200;27.920;2023-09-08T08:27:43;3.90;;;3.60;;
6941;SDS011;3510;43.200;27.920;2023-09-08T08:30:10;3.43;;;3.20;;
6941;SDS011;3510;43.200;27.920;2023-09-08T08:32:37;3.78;;;3.47;;
6941;SDS011;3510;43.200;27.920;2023-09-08T08:35:06;3.30;;;3.00;;
6941;SDS011;3510;43.200;27.920;2023-09-08T08:37:33;5.68;;;3.88;;
6941;SDS011;3510;43.200;27.920;2023-09-08T08:39:59;3.40;;;3.20;;
6941;SDS011;3510;43.200;27.920;2023-09-08T08:42:32;9.10;;;4.05;;
6941;SDS011;3510;43.200;27.920;2023-09-08T08:44:59;5.03;;;3.40;;
6941;SDS011;3510;43.200;27.920;2023-09-08T08:47:26;6.25;;;4.13;;
6941;SDS011;3510;43.200;27.920;2023-09-08T08:59:42;3.70;;;3.40;;
6941;SDS011;3510;43.200;27.920;2023-09-08T09:02:10;2.67;;;2.50;;
6941;SDS011;3510;43.200;27.920;2023-09-08T09:04:39;5.88;;;2.72;;
6941;SDS011;3510;43.200;27.920;2023-09-08T09:07:07;2.28;;;2.17;;
6941;SDS011;3510;43.200;27.920;2023-09-08T09:09:34;2.58;;;2.47;;
6941;SDS011;3510;43.200;27.920;2023-09-08T09:12:01;4.25;;;2.53;;
6941;SDS011;3510;43.200;27.920;2023-09-08T09:14:31;3.05;;;2.88;;
6941;SDS011;3510;43.200;27.920;2023-09-08T09:19:29;3.70;;;3.40;;
6941;SDS011;3510;43.200;27.920;2023-09-08T09:21:57;4.97;;;3.95;;
6941;SDS011;3510;43.200;27.920;2023-09-08T09:24:29;7.05;;;4.57;;
6941;SDS011;3510;43.200;27.920;2023-09-08T09:26:58;3.92;;;3.53;;
6941;SDS011;3510;43.200;27.920;2023-09-08T09:29:26;2.65;;;2.45;;
6941;SDS011;3510;43.200;27.920;2023-09-08T09:31:54;6.30;;;3.63;;
6941;SDS011;3510;43.200;27.920;2023-09-08T09:34:23;2.80;;;2.60;;
6941;SDS011;3510;43.200;27.920;2023-09-08T09:36:50;3.40;;;2.72;;
6941;SDS011;3510;43.200;27.920;2023-09-08T09:39:18;4.63;;;3.42;;
6941;SDS011;3510;43.200;27.920;2023-09-08T09:42:00;2.60;;;2.38;;
6941;SDS011;3510;43.200;27.920;2023-09-08T09:44:29;2.53;;;2.33;;
6941;SDS011;3510;43.200;27.920;2023-09-08T09:46:56;2.90;;;2.70;;
6941;SDS011;3510;43.200;27.920;2023-09-08T09:49:25;3.95;;;2.63;;
6941;SDS011;3510;43.200;27.920;2023-09-08T09:52:06;3.33;;;2.20;;
6941;SDS011;3510;43.200;27.920;2023-09-08T09:54:47;2.97;;;2.70;;
6941;SDS011;3510;43.200;27.920;2023-09-08T09:57:16;2.55;;;2.40;;
6941;SDS011;3510;43.200;27.920;2023-09-08T09:59:45;2.93;;;2.30;;
6941;SDS011;3510;43.200;27.920;2023-09-08T10:02:15;2.60;;;2.40;;
6941;SDS011;3510;43.200;27.920;2023-09-08T10:10:53;2.28;;;2.17;;
6941;SDS011;3510;43.200;27.920;2023-09-08T10:13:22;2.53;;;2.42;;
6941;SDS011;3510;43.200;27.920;2023-09-08T10:15:53;3.08;;;2.15;;
6941;SDS011;3510;43.200;27.920;2023-09-08T10:18:23;6.03;;;3.58;;
6941;SDS011;3510;43.200;27.920;2023-09-08T10:21:04;3.08;;;2.33;;
6941;SDS011;3510;43.200;27.920;2023-09-08T10:23:35;3.38;;;2.47;;
6941;SDS011;3510;43.200;27.920;2023-09-08T10:29:14;3.22;;;3.00;;
6941;SDS011;3510;43.200;27.920;2023-09-08T10:31:42;2.75;;;1.98;;
6941;SDS011;3510;43.200;27.920;2023-09-08T10:34:11;4.40;;;2.20;;
6941;SDS011;3510;43.200;27.920;2023-09-08T10:36:38;2.53;;;2.33;;
6941;SDS011;3510;43.200;27.920;2023-09-08T10:44:56;2.88;;;2.65;;
6941;SDS011;3510;43.200;27.920;2023-09-08T10:47:30;2.67;;;2.47;;
6941;SDS011;3510;43.200;27.920;2023-09-08T10:50:15;2.92;;;2.58;;
6941;SDS011;3510;43.200;27.920;2023-09-08T10:53:03;2.70;;;2.47;;
6941;SDS011;3510;43.200;27.920;2023-09-08T10:55:47;2.50;;;2.30;;
6941;SDS011;3510;43.200;27.920;2023-09-08T10:58:30;2.42;;;2.22;;
6941;SDS011;3510;43.200;27.920;2023-09-08T11:01:00;3.75;;;2.72;;
6941;SDS011;3510;43.200;27.920;2023-09-08T11:03:42;2.45;;;2.25;;
6941;SDS011;3510;43.200;27.920;2023-09-08T11:06:10;2.70;;;2.50;;
6941;SDS011;3510;43.200;27.920;2023-09-08T11:08:38;2.88;;;2.30;;
6941;SDS011;3510;43.200;27.920;2023-09-08T11:11:21;2.90;;;2.60;;
6941;SDS011;3510;43.200;27.920;2023-09-08T11:13:48;3.47;;;2.70;;
6941;SDS011;3510;43.200;27.920;2023-09-08T11:16:16;3.80;;;2.60;;
6941;SDS011;3510;43.200;27.920;2023-09-08T11:18:50;10.38;;;3.60;;
6941;SDS011;3510;43.200;27.920;2023-09-08T11:21:17;2.63;;;2.42;;
6941;SDS011;3510;43.200;27.920;2023-09-08T11:23:44;3.30;;;2.20;;
6941;SDS011;3510;43.200;27.920;2023-09-08T11:26:11;2.45;;;2.08;;
6941;SDS011;3510;43.200;27.920;2023-09-08T11:28:38;2.80;;;1.90;;
6941;SDS011;3510;43.200;27.920;2023-09-08T11:31:06;3.22;;;2.20;;
6941;SDS011;3510;43.200;27.920;2023-09-08T11:38:37;3.78;;;2.33;;
6941;SDS011;3510;43.200;27.920;2023-09-08T11:41:04;2.50;;;2.30;;
6941;SDS011;3510;43.200;27.920;2023-09-08T11:43:31;2.67;;;2.47;;
6941;SDS011;3510;43.200;27.920;2023-09-08T11:45:59;2.15;;;2.05;;
6941;SDS011;3510;43.200;27.920;2023-09-08T11:48:26;10.23;;;2.05;;
6941;SDS011;3510;43.200;27.920;2023-09-08T11:50:54;4.78;;;2.50;;
6941;SDS011;3510;43.200;27.920;2023-09-08T11:53:21;2.30;;;2.20;;
6941;SDS011;3510;43.200;27.920;2023-09-08T11:55:48;1.90;;;1.80;;
6941;SDS011;3510;43.200;27.920;2023-09-08T11:58:16;6.38;;;2.15;;
6941;SDS011;3510;43.200;27.920;2023-09-08T12:00:44;5.32;;;2.25;;
6941;SDS011;3510;43.200;27.920;2023-09-08T12:03:14;4.18;;;2.42;;
6941;SDS011;3510;43.200;27.920;2023-09-08T12:05:42;2.85;;;2.55;;
6941;SDS011;3510;43.200;27.920;2023-09-08T12:08:12;2.10;;;2.00;;
6941;SDS011;3510;43.200;27.920;2023-09-08T12:10:39;4.10;;;2.70;;
6941;SDS011;3510;43.200;27.920;2023-09-08T12:13:08;2.85;;;2.17;;
6941;SDS011;3510;43.200;27.920;2023-09-08T12:15:36;2.50;;;2.30;;
6941;SDS011;3510;43.200;27.920;2023-09-08T12:42:57;3.10;;;2.75;;
6941;SDS011;3510;43.200;27.920;2023-09-08T12:45:25;3.05;;;2.45;;
6941;SDS011;3510;43.200;27.920;2023-09-08T12:47:53;3.30;;;2.42;;
6941;SDS011;3510;43.200;27.920;2023-09-08T12:50:23;2.28;;;2.15;;
6941;SDS011;3510;43.200;27.920;2023-09-08T12:52:49;3.22;;;2.20;;
6941;SDS011;3510;43.200;27.920;2023-09-08T12:55:17;3.03;;;2.72;;
6941;SDS011;3510;43.200;27.920;2023-09-08T12:57:46;3.40;;;2.80;;
6941;SDS011;3510;43.200;27.920;2023-09-08T13:00:15;3.25;;;2.90;;
6941;SDS011;3510;43.200;27.920;2023-09-08T13:02:45;2.67;;;2.47;;
6941;SDS011;3510;43.200;27.920;2023-09-08T13:10:06;2.60;;;2.30;;
6941;SDS011;3510;43.200;27.920;2023-09-08T13:12:34;2.70;;;2.50;;
6941;SDS011;3510;43.200;27.920;2023-09-08T13:15:02;2.05;;;1.85;;
6941;SDS011;3510;43.200;27.920;2023-09-08T13:17:29;1.85;;;1.75;;
6941;SDS011;3510;43.200;27.920;2023-09-08T13:19:56;3.50;;;2.55;;
6941;SDS011;3510;43.200;27.920;2023-09-08T13:22:23;3.40;;;2.17;;
6941;SDS011;3510;43.200;27.920;2023-09-08T13:24:50;3.20;;;2.00;;
6941;SDS011;3510;43.200;27.920;2023-09-08T13:27:17;2.45;;;2.00;;
6941;SDS011;3510;43.200;27.920;2023-09-08T13:29:44;3.40;;;1.65;;
6941;SDS011;3510;43.200;27.920;2023-09-08T13:32:12;2.40;;;1.63;;
6941;SDS011;3510;43.200;27.920;2023-09-08T13:34:39;2.63;;;1.73;;
6941;SDS011;3510;43.200;27.920;2023-09-08T13:37:08;2.10;;;1.90;;
6941;SDS011;3510;43.200;27.920;2023-09-08T13:39:36;2.80;;;1.90;;
6941;SDS011;3510;43.200;27.920;2023-09-08T13:42:03;1.98;;;1.75;;
6941;SDS011;3510;43.200;27.920;2023-09-08T13:44:30;1.83;;;1.73;;
6941;SDS011;3510;43.200;27.920;2023-09-08T13:49:25;3.75;;;2.30;;
6941;SDS011;3510;43.200;27.920;2023-09-08T13:51:52;3.72;;;2.00;;
6941;SDS011;3510;43.200;27.920;2023-09-08T13:54:20;2.80;;;1.90;;
6941;SDS011;3510;43.200;27.920;2023-09-08T13:56:56;2.15;;;1.70;;
6941;SDS011;3510;43.200;27.920;2023-09-08T13:59:26;1.95;;;1.85;;
6941;SDS011;3510;43.200;27.920;2023-09-08T14:01:53;3.25;;;2.30;;
6941;SDS011;3510;43.200;27.920;2023-09-08T14:04:20;3.05;;;1.80;;
6941;SDS011;3510;43.200;27.920;2023-09-08T14:06:48;4.88;;;1.85;;
6941;SDS011;3510;43.200;27.920;2023-09-08T14:09:15;1.95;;;1.85;;
6941;SDS011;3510;43.200;27.920;2023-09-08T14:11:42;2.78;;;2.00;;
6941;SDS011;3510;43.200;27.920;2023-09-08T14:14:09;2.00;;;1.90;;
6941;SDS011;3510;43.200;27.920;2023-09-08T14:16:36;3.00;;;2.30;;
6941;SDS011;3510;43.200;27.920;2023-09-08T14:19:03;2.60;;;2.35;;
6941;SDS011;3510;43.200;27.920;2023-09-08T14:21:30;3.92;;;2.40;;
6941;SDS011;3510;43.200;27.920;2023-09-08T14:23:58;2.97;;;1.98;;
6941;SDS011;3510;43.200;27.920;2023-09-08T14:26:25;3.00;;;2.30;;
6941;SDS011;3510;43.200;27.920;2023-09-08T14:28:52;2.30;;;2.17;;
6941;SDS011;3510;43.200;27.920;2023-09-08T14:31:19;3.00;;;2.63;;
6941;SDS011;3510;43.200;27.920;2023-09-08T14:33:46;2.30;;;2.20;;
6941;SDS011;3510;43.200;27.920;2023-09-08T14:36:16;2.08;;;1.85;;
6941;SDS011;3510;43.200;27.920;2023-09-08T14:38:44;2.45;;;1.60;;
6941;SDS011;3510;43.200;27.920;2023-09-08T14:41:13;2.30;;;1.40;;
6941;SDS011;3510;43.200;27.920;2023-09-08T14:43:40;2.20;;;1.70;;
6941;SDS011;3510;43.200;27.920;2023-09-08T14:46:12;2.30;;;2.17;;
6941;SDS011;3510;43.200;27.920;2023-09-08T14:48:39;2.88;;;1.83;;
6941;SDS011;3510;43.200;27.920;2023-09-08T14:51:06;1.90;;;1.65;;
6941;SDS011;3510;43.200;27.920;2023-09-08T14:53:33;1.70;;;1.60;;
6941;SDS011;3510;43.200;27.920;2023-09-08T14:56:00;3.33;;;2.13;;
6941;SDS011;3510;43.200;27.920;2023-09-08T14:58:30;2.63;;;1.60;;
6941;SDS011;3510;43.200;27.920;2023-09-08T15:03:28;2.22;;;1.70;;
6941;SDS011;3510;43.200;27.920;2023-09-08T15:05:56;2.13;;;2.00;;
6941;SDS011;3510;43.200;27.920;2023-09-08T15:08:23;2.42;;;2.20;;
6941;SDS011;3510;43.200;27.920;2023-09-08T15:10:50;2.93;;;2.37;;
6941;SDS011;3510;43.200;27.920;2023-09-08T15:13:17;2.25;;;1.67;;
6941;SDS011;3510;43.200;27.920;2023-09-08T15:15:45;1.95;;;1.80;;
6941;SDS011;3510;43.200;27.920;2023-09-08T15:18:12;1.50;;;1.40;;
6941;SDS011;3510;43.200;27.920;2023-09-08T15:20:39;4.68;;;1.40;;
6941;SDS011;3510;43.200;27.920;2023-09-08T15:23:10;2.25;;;1.63;;
6941;SDS011;3510;43.200;27.920;2023-09-08T15:25:51;3.78;;;1.60;;
6941;SDS011;3510;43.200;27.920;2023-09-08T15:28:33;1.60;;;1.50;;
6941;SDS011;3510;43.200;27.920;2023-09-08T15:46:28;2.55;;;1.98;;
6941;SDS011;3510;43.200;27.920;2023-09-08T15:49:08;2.22;;;2.03;;
6941;SDS011;3510;43.200;27.920;2023-09-08T15:51:36;2.00;;;1.90;;
6941;SDS011;3510;43.200;27.920;2023-09-08T15:54:03;4.30;;;2.00;;
6941;SDS011;3510;43.200;27.920;2023-09-08T15:56:44;2.85;;;1.80;;
6941;SDS011;3510;43.200;27.920;2023-09-08T15:59:12;2.70;;;2.13;;
6941;SDS011;3510;43.200;27.920;2023-09-08T16:01:40;2.15;;;1.70;;
6941;SDS011;3510;43.200;27.920;2023-09-08T16:04:06;3.33;;;1.92;;
6941;SDS011;3510;43.200;27.920;2023-09-08T16:06:35;2.95;;;2.75;;
6941;SDS011;3510;43.200;27.920;2023-09-08T16:09:02;2.30;;;2.10;;
6941;SDS011;3510;43.200;27.920;2023-09-08T16:11:29;3.38;;;3.00;;
6941;SDS011;3510;43.200;27.920;2023-09-08T16:13:56;2.70;;;2.50;;
6941;SDS011;3510;43.200;27.920;2023-09-08T16:16:24;7.22;;;4.40;;
6941;SDS011;3510;43.200;27.920;2023-09-08T16:18:51;6.85;;;3.40;;
6941;SDS011;3510;43.200;27.920;2023-09-08T16:21:32;3.33;;;2.40;;
6941;SDS011;3510;43.200;27.920;2023-09-08T16:23:59;2.05;;;1.95;;
6941;SDS011;3510;43.200;27.920;2023-09-08T16:26:40;5.80;;;5.28;;
6941;SDS011;3510;43.200;27.920;2023-09-08T16:29:06;8.50;;;2.38;;
6941;SDS011;3510;43.200;27.920;2023-09-08T16:34:44;2.20;;;2.08;;
6941;SDS011;3510;43.200;27.920;2023-09-08T16:37:11;2.72;;;2.53;;
6941;SDS011;3510;43.200;27.920;2023-09-08T16:39:38;4.82;;;3.63;;
6941;SDS011;3510;43.200;27.920;2023-09-08T16:42:05;4.30;;;3.95;;
6941;SDS011;3510;43.200;27.920;2023-09-08T16:44:32;6.50;;;4.97;;
6941;SDS011;3510;43.200;27.920;2023-09-08T16:46:59;11.23;;;7.50;;
6941;SDS011;3510;43.200;27.920;2023-09-08T16:49:25;2.67;;;2.38;;
